createdAt,value
2022-12-08T00:01:55.804Z,8.23
2022-12-08T00:04:25.525Z,8.55
2022-12-08T00:07:10.826Z,9.18
2022-12-08T00:09:42.226Z,9.48
2022-12-08T00:12:12.167Z,9.20
2022-12-08T00:14:41.976Z,9.35
2022-12-08T00:17:11.137Z,9.55
2022-12-08T00:19:40.049Z,9.50
2022-12-08T00:22:09.116Z,10.80
2022-12-08T00:24:40.115Z,10.10
2022-12-08T00:27:09.224Z,10.02
2022-12-08T00:29:37.097Z,9.65
2022-12-08T00:32:05.602Z,9.30
2022-12-08T00:34:34.414Z,9.20
2022-12-08T00:37:02.135Z,10.45
2022-12-08T00:39:29.892Z,10.35
2022-12-08T00:42:14.049Z,10.77
2022-12-08T00:44:41.865Z,9.75
2022-12-08T00:47:09.948Z,10.13
2022-12-08T00:49:37.802Z,8.75
2022-12-08T00:52:05.972Z,9.02
2022-12-08T00:54:33.780Z,8.57
2022-12-08T00:57:05.798Z,9.05
2022-12-08T00:59:33.650Z,9.50
2022-12-08T01:02:01.494Z,9.32
2022-12-08T01:04:29.213Z,8.63
2022-12-08T01:06:56.956Z,8.95
2022-12-08T01:09:24.829Z,9.25
2022-12-08T01:11:54.664Z,8.82
2022-12-08T01:14:23.893Z,9.27
2022-12-08T01:16:51.872Z,8.75
2022-12-08T01:19:22.839Z,8.60
2022-12-08T01:21:50.678Z,8.80
2022-12-08T01:24:21.672Z,9.18
2022-12-08T01:26:50.764Z,9.05
2022-12-08T01:29:19.039Z,9.43
2022-12-08T01:31:48.168Z,11.15
2022-12-08T01:34:15.949Z,10.90
2022-12-08T01:36:44.508Z,10.77
2022-12-08T01:39:17.653Z,11.15
2022-12-08T01:41:47.714Z,10.85
2022-12-08T01:44:52.725Z,10.90
2022-12-08T01:47:22.546Z,11.40
2022-12-08T01:49:50.239Z,10.82
2022-12-08T01:52:22.933Z,11.77
2022-12-08T01:54:53.653Z,11.18
2022-12-08T01:57:24.716Z,10.27
2022-12-08T01:59:58.071Z,10.95
2022-12-08T02:02:30.705Z,10.48
2022-12-08T02:04:58.537Z,10.50
2022-12-08T02:07:26.713Z,10.70
2022-12-08T02:09:55.382Z,11.13
2022-12-08T02:12:23.259Z,9.93
2022-12-08T02:14:51.064Z,10.63
2022-12-08T02:17:36.551Z,10.07
2022-12-08T02:20:30.239Z,9.98
2022-12-08T02:23:06.469Z,10.23
2022-12-08T02:25:48.347Z,9.65
2022-12-08T02:28:45.299Z,10.07
2022-12-08T02:31:21.377Z,10.75
2022-12-08T02:34:13.047Z,10.55
2022-12-08T02:36:50.745Z,10.75
2022-12-08T02:39:31.740Z,10.73
2022-12-08T02:42:08.153Z,9.52
2022-12-08T02:44:40.606Z,10.23
2022-12-08T02:47:12.839Z,9.40
2022-12-08T02:49:44.908Z,8.65
2022-12-08T02:52:40.030Z,9.73
2022-12-08T02:55:13.197Z,9.05
2022-12-08T02:57:53.473Z,9.45
2022-12-08T03:00:22.992Z,7.35
2022-12-08T03:03:08.384Z,7.97
2022-12-08T03:05:58.655Z,9.40
2022-12-08T03:08:33.647Z,8.13
2022-12-08T03:11:05.021Z,8.27
2022-12-08T03:13:39.226Z,7.63
2022-12-08T03:16:10.656Z,7.53
2022-12-08T03:18:44.324Z,8.20
2022-12-08T03:21:16.424Z,8.77
2022-12-08T03:23:47.368Z,8.60
2022-12-08T03:26:23.553Z,7.82
2022-12-08T03:28:51.638Z,8.32
2022-12-08T03:31:21.008Z,7.40
2022-12-08T03:33:52.843Z,7.32
2022-12-08T03:36:22.219Z,7.05
2022-12-08T03:38:53.449Z,8.70
2022-12-08T03:41:22.690Z,7.53
2022-12-08T03:43:52.951Z,6.88
2022-12-08T03:48:49.124Z,7.43
2022-12-08T03:51:16.933Z,7.65
2022-12-08T03:53:46.717Z,6.97
2022-12-08T03:56:17.872Z,7.57
2022-12-08T03:58:45.815Z,6.82
2022-12-08T04:01:13.667Z,7.03
2022-12-08T04:03:41.420Z,7.80
2022-12-08T04:06:09.218Z,7.22
2022-12-08T04:08:37.222Z,7.00
2022-12-08T04:11:07.336Z,7.15
2022-12-08T04:13:35.356Z,8.52
2022-12-08T04:16:03.564Z,8.80
2022-12-08T04:18:31.469Z,9.48
2022-12-08T04:20:59.425Z,8.15
2022-12-08T04:23:27.291Z,8.23
2022-12-08T04:25:55.498Z,9.57
2022-12-08T04:28:24.654Z,9.50
2022-12-08T04:30:52.388Z,9.70
2022-12-08T04:33:20.116Z,10.15
2022-12-08T04:35:50.279Z,9.88
2022-12-08T04:38:18.427Z,9.77
2022-12-08T04:40:46.617Z,10.68
2022-12-08T04:43:14.426Z,10.55
2022-12-08T04:45:44.086Z,10.75
2022-12-08T04:48:13.328Z,10.20
2022-12-08T04:50:42.572Z,11.10
2022-12-08T04:53:10.649Z,10.00
2022-12-08T04:55:40.406Z,8.65
2022-12-08T04:58:08.125Z,10.15
2022-12-08T05:00:35.792Z,9.52
2022-12-08T05:03:05.380Z,8.65
2022-12-08T05:05:33.465Z,9.05
2022-12-08T05:08:01.348Z,9.32
2022-12-08T05:10:31.964Z,9.70
2022-12-08T05:12:59.958Z,9.05
2022-12-08T05:15:27.730Z,9.10
2022-12-08T05:17:55.709Z,8.10
2022-12-08T05:20:24.847Z,8.75
2022-12-08T05:22:52.549Z,8.55
2022-12-08T05:25:20.269Z,9.02
2022-12-08T05:27:48.079Z,8.70
2022-12-08T05:30:16.048Z,8.35
2022-12-08T05:32:43.782Z,9.18
2022-12-08T05:35:11.838Z,9.43
2022-12-08T05:37:41.040Z,9.05
2022-12-08T05:40:09.658Z,10.05
2022-12-08T05:42:37.374Z,9.68
2022-12-08T05:45:05.954Z,8.88
2022-12-08T05:47:36.238Z,9.00
2022-12-08T05:50:04.648Z,9.23
2022-12-08T05:52:33.208Z,9.15
2022-12-08T05:55:05.729Z,10.75
2022-12-08T05:57:33.515Z,13.55
2022-12-08T06:00:03.387Z,11.73
2022-12-08T06:02:31.641Z,10.45
2022-12-08T06:04:59.544Z,11.52
2022-12-08T06:07:27.513Z,12.75
2022-12-08T06:09:55.306Z,13.32
2022-12-08T06:12:24.382Z,11.65
2022-12-08T06:14:52.417Z,11.65
2022-12-08T06:17:20.263Z,11.57
2022-12-08T06:19:48.012Z,12.45
2022-12-08T06:22:15.748Z,11.68
2022-12-08T06:24:43.389Z,11.93
2022-12-08T06:27:11.084Z,14.38
2022-12-08T06:29:41.301Z,12.68
2022-12-08T06:32:09.066Z,12.23
2022-12-08T06:34:36.858Z,12.20
2022-12-08T06:37:04.578Z,13.30
2022-12-08T06:39:32.373Z,13.55
2022-12-08T06:42:28.972Z,13.45
2022-12-08T06:44:58.437Z,13.18
2022-12-08T06:47:26.537Z,11.60
2022-12-08T06:49:54.551Z,11.73
2022-12-08T06:52:22.255Z,11.55
2022-12-08T06:54:50.003Z,11.68
2022-12-08T06:57:18.530Z,10.02
2022-12-08T06:59:47.867Z,11.45
2022-12-08T07:02:17.224Z,11.23
2022-12-08T07:04:44.924Z,11.80
2022-12-08T07:07:12.647Z,13.02
2022-12-08T07:09:42.020Z,11.65
2022-12-08T07:12:09.739Z,12.65
2022-12-08T07:14:37.553Z,13.13
2022-12-08T07:17:05.289Z,12.52
2022-12-08T07:19:34.325Z,14.27
2022-12-08T07:22:01.914Z,13.95
2022-12-08T07:24:29.669Z,14.32
2022-12-08T07:26:57.451Z,12.48
2022-12-08T07:29:26.452Z,13.05
2022-12-08T07:31:54.290Z,12.95
2022-12-08T07:34:21.972Z,12.45
2022-12-08T07:36:51.160Z,13.48
2022-12-08T07:39:21.374Z,13.18
2022-12-08T07:41:49.170Z,13.15
2022-12-08T07:44:17.035Z,13.13
2022-12-08T07:46:44.747Z,13.60
2022-12-08T07:49:13.617Z,13.57
2022-12-08T07:51:43.839Z,13.00
2022-12-08T07:54:15.748Z,14.10
2022-12-08T07:56:43.427Z,13.82
2022-12-08T07:59:11.124Z,13.65
2022-12-08T08:01:39.293Z,12.98
2022-12-08T08:04:07.448Z,12.90
2022-12-08T08:06:36.308Z,13.38
2022-12-08T08:09:03.966Z,13.32
2022-12-08T08:11:33.045Z,15.85
2022-12-08T08:14:00.780Z,13.18
2022-12-08T08:16:36.572Z,13.73
2022-12-08T08:19:05.963Z,13.40
2022-12-08T08:21:48.925Z,13.50
2022-12-08T08:24:17.593Z,12.95
2022-12-08T08:26:46.657Z,13.60
2022-12-08T08:29:14.336Z,12.68
2022-12-08T08:31:42.117Z,12.73
2022-12-08T08:34:09.940Z,12.35
2022-12-08T08:36:37.694Z,12.88
2022-12-08T08:39:05.658Z,13.82
2022-12-08T08:41:33.492Z,13.35
2022-12-08T08:44:02.560Z,14.32
2022-12-08T08:46:30.314Z,13.13
2022-12-08T08:48:58.697Z,12.68
2022-12-08T08:51:28.872Z,12.23
2022-12-08T08:53:59.804Z,12.23
2022-12-08T08:56:27.739Z,12.45
2022-12-08T08:58:55.592Z,12.05
2022-12-08T09:01:28.333Z,13.32
2022-12-08T09:03:59.272Z,13.02
2022-12-08T09:06:28.411Z,12.48
2022-12-08T09:08:56.441Z,10.55
2022-12-08T09:11:24.524Z,10.27
2022-12-08T09:13:53.167Z,11.63
2022-12-08T09:16:21.332Z,12.10
2022-12-08T09:18:50.724Z,10.63
2022-12-08T09:21:26.589Z,12.68
2022-12-08T09:23:56.798Z,10.63
2022-12-08T09:26:25.089Z,10.88
2022-12-08T09:28:54.190Z,9.95
2022-12-08T09:31:23.989Z,11.02
2022-12-08T09:33:53.352Z,10.00
2022-12-08T09:36:21.645Z,10.15
2022-12-08T09:38:51.030Z,10.73
2022-12-08T09:41:30.743Z,9.32
2022-12-08T09:44:10.196Z,9.73
2022-12-08T09:46:40.085Z,9.45
2022-12-08T09:49:15.298Z,9.45
2022-12-08T09:51:45.134Z,9.25
2022-12-08T09:54:18.958Z,8.90
2022-12-08T09:56:47.049Z,8.27
2022-12-08T09:59:23.666Z,8.63
2022-12-08T10:01:51.982Z,8.75
2022-12-08T10:04:25.264Z,8.23
2022-12-08T10:07:02.450Z,8.73
2022-12-08T10:09:40.469Z,8.27
2022-12-08T10:12:17.502Z,7.97
2022-12-08T10:14:48.321Z,8.60
2022-12-08T10:17:21.440Z,8.35
2022-12-08T10:19:52.162Z,7.95
2022-12-08T10:22:23.581Z,7.70
2022-12-08T10:25:00.225Z,7.65
2022-12-08T10:27:31.404Z,8.23
2022-12-08T10:29:59.086Z,7.88
2022-12-08T10:32:35.117Z,8.05
2022-12-08T10:35:07.690Z,8.30
2022-12-08T10:37:35.683Z,8.40
2022-12-08T10:40:11.047Z,6.95
2022-12-08T10:42:42.371Z,7.20
2022-12-08T10:45:23.075Z,8.02
2022-12-08T10:48:01.049Z,8.23
2022-12-08T10:50:36.041Z,7.97
2022-12-08T10:53:13.028Z,6.97
2022-12-08T10:55:43.051Z,7.60
2022-12-08T10:58:28.514Z,9.27
2022-12-08T11:00:58.994Z,8.73
2022-12-08T11:03:31.042Z,8.05
2022-12-08T11:06:07.290Z,8.97
2022-12-08T11:08:48.138Z,8.68
2022-12-08T11:11:16.939Z,7.97
2022-12-08T11:13:52.271Z,7.95
2022-12-08T11:16:21.597Z,7.78
2022-12-08T11:18:57.289Z,8.25
2022-12-08T11:21:35.701Z,7.85
2022-12-08T11:24:22.233Z,8.02
2022-12-08T11:26:53.448Z,8.07
2022-12-08T11:29:21.811Z,7.95
2022-12-08T11:31:53.509Z,8.32
2022-12-08T11:34:25.879Z,7.80
2022-12-08T11:36:56.663Z,8.20
2022-12-08T11:39:27.875Z,8.00
2022-12-08T11:41:56.498Z,7.63
2022-12-08T11:44:31.328Z,6.38
2022-12-08T11:47:03.129Z,7.38
2022-12-08T11:49:35.354Z,7.82
2022-12-08T11:52:13.301Z,7.10
2022-12-08T11:54:46.215Z,6.88
2022-12-08T11:59:47.011Z,5.25
2022-12-08T12:02:18.249Z,6.25
2022-12-08T12:04:52.093Z,7.25
2022-12-08T12:07:43.174Z,7.63
2022-12-08T12:10:36.255Z,6.65
2022-12-08T12:13:13.596Z,6.55
2022-12-08T12:16:02.784Z,6.68
2022-12-08T12:18:36.632Z,6.55
2022-12-08T12:21:11.701Z,7.82
2022-12-08T12:23:43.897Z,7.40
2022-12-08T12:26:19.481Z,6.38
2022-12-08T12:28:53.569Z,6.78
2022-12-08T12:31:25.902Z,6.25
2022-12-08T12:33:57.291Z,6.10
2022-12-08T12:36:25.516Z,6.35
2022-12-08T12:39:06.434Z,5.72
2022-12-08T12:41:44.447Z,6.25
2022-12-08T12:44:41.073Z,5.60
2022-12-08T12:47:35.247Z,5.57
2022-12-08T12:50:11.386Z,6.40
2022-12-08T12:52:44.840Z,5.60
2022-12-08T12:55:52.038Z,6.28
2022-12-08T12:58:49.172Z,6.45
2022-12-08T13:01:53.841Z,6.80
2022-12-08T13:04:30.773Z,6.88
2022-12-08T13:06:58.922Z,5.90
2022-12-08T13:09:34.698Z,6.53
2022-12-08T13:12:11.327Z,6.80
2022-12-08T13:14:46.556Z,6.63
2022-12-08T13:17:26.839Z,6.13
2022-12-08T13:19:58.129Z,6.97
2022-12-08T13:22:59.051Z,6.53
2022-12-08T13:26:16.702Z,6.20
2022-12-08T13:29:32.986Z,6.10
2022-12-08T13:32:01.329Z,8.20
2022-12-08T13:34:35.504Z,6.47
2022-12-08T13:37:21.695Z,6.85
2022-12-08T13:39:52.879Z,5.55
2022-12-08T13:42:28.020Z,5.97
2022-12-08T13:48:21.786Z,5.75
2022-12-08T13:59:31.389Z,5.10
2022-12-08T14:02:05.689Z,7.35
2022-12-08T14:04:54.302Z,5.70
2022-12-08T14:07:22.640Z,5.35
2022-12-08T14:09:53.135Z,6.10
2022-12-08T14:12:23.075Z,5.20
2022-12-08T14:15:08.346Z,5.43
2022-12-08T14:17:40.509Z,6.50
2022-12-08T14:20:21.614Z,6.53
2022-12-08T14:22:52.436Z,6.30
2022-12-08T14:25:21.141Z,5.80
2022-12-08T14:27:49.789Z,6.00
2022-12-08T14:30:21.881Z,4.80
2022-12-08T14:32:52.567Z,5.60
2022-12-08T14:35:24.219Z,5.35
2022-12-08T14:37:55.518Z,5.25
2022-12-08T14:40:26.124Z,5.68
2022-12-08T14:42:55.809Z,5.05
2022-12-08T14:45:23.600Z,5.97
2022-12-08T14:47:52.713Z,7.45
2022-12-08T14:50:41.496Z,9.30
2022-12-08T14:53:17.901Z,6.95
2022-12-08T14:55:47.881Z,6.07
2022-12-08T14:58:22.138Z,6.05
2022-12-08T15:00:52.235Z,6.32
2022-12-08T15:03:23.391Z,7.78
2022-12-08T15:06:11.132Z,5.75
2022-12-08T15:09:51.130Z,6.25
2022-12-08T15:12:27.678Z,6.07
2022-12-08T15:14:58.947Z,6.63
2022-12-08T15:17:31.576Z,6.85
2022-12-08T15:20:02.815Z,7.22
2022-12-08T15:22:33.421Z,8.00
2022-12-08T15:25:01.831Z,8.25
2022-12-08T15:27:30.473Z,8.43
2022-12-08T15:29:58.284Z,7.35
2022-12-08T15:32:26.150Z,7.43
2022-12-08T15:34:53.837Z,8.02
2022-12-08T15:37:24.993Z,8.02
2022-12-08T15:39:53.229Z,6.68
2022-12-08T15:42:21.076Z,7.47
2022-12-08T15:44:48.992Z,8.70
2022-12-08T15:47:19.430Z,9.98
2022-12-08T15:49:48.148Z,9.50
2022-12-08T15:52:18.846Z,10.00
2022-12-08T15:54:49.052Z,8.02
2022-12-08T15:58:17.008Z,8.43
2022-12-08T16:03:59.868Z,10.23
2022-12-08T16:07:21.537Z,10.93
2022-12-08T16:09:13.415Z,9.52
2022-12-08T16:12:09.637Z,8.52
2022-12-08T16:17:32.821Z,8.95
2022-12-08T16:20:00.977Z,9.60
2022-12-08T16:25:21.635Z,8.05
2022-12-08T16:28:12.350Z,7.10
2022-12-08T16:30:41.537Z,8.95
2022-12-08T16:33:10.528Z,7.80
2022-12-08T16:35:38.223Z,8.13
2022-12-08T16:38:05.948Z,7.72
2022-12-08T16:40:53.832Z,8.40
2022-12-08T16:43:24.023Z,8.98
2022-12-08T16:45:52.770Z,9.27
2022-12-08T16:48:20.743Z,10.80
2022-12-08T16:50:48.430Z,10.38
2022-12-08T16:53:16.250Z,11.93
2022-12-08T16:55:48.203Z,15.48
2022-12-08T16:58:16.274Z,18.67
2022-12-08T17:00:46.113Z,19.73
2022-12-08T17:03:15.991Z,18.58
2022-12-08T17:05:44.474Z,15.80
2022-12-08T17:08:16.799Z,16.10
2022-12-08T17:10:44.766Z,18.20
2022-12-08T17:13:13.075Z,19.10
2022-12-08T17:15:42.636Z,13.73
2022-12-08T17:18:12.300Z,11.88
2022-12-08T17:20:40.747Z,10.15
2022-12-08T17:23:08.514Z,10.98
2022-12-08T17:25:37.301Z,10.45
2022-12-08T17:28:05.295Z,10.75
2022-12-08T17:30:32.948Z,10.43
2022-12-08T17:33:00.633Z,9.60
2022-12-08T17:35:29.765Z,10.18
2022-12-08T17:37:57.529Z,10.85
2022-12-08T17:40:28.112Z,13.20
2022-12-08T17:42:56.223Z,12.50
2022-12-08T17:45:24.487Z,9.23
2022-12-08T17:47:52.270Z,9.70
2022-12-08T17:50:20.021Z,9.65
2022-12-08T17:52:50.777Z,9.57
2022-12-08T17:55:18.757Z,9.93
2022-12-08T17:57:46.669Z,8.15
2022-12-08T18:00:15.705Z,8.23
2022-12-08T18:02:43.517Z,8.82
2022-12-08T18:05:11.240Z,10.02
2022-12-08T18:07:39.109Z,8.70
2022-12-08T18:10:09.098Z,9.60
2022-12-08T18:12:40.728Z,9.18
2022-12-08T18:15:16.124Z,9.73
2022-12-08T18:17:43.828Z,9.18
2022-12-08T18:20:12.551Z,10.73
2022-12-08T18:22:40.992Z,10.93
2022-12-08T18:25:11.419Z,8.75
2022-12-08T18:27:43.185Z,7.72
2022-12-08T18:30:15.327Z,7.37
2022-12-08T18:32:43.195Z,8.27
2022-12-08T18:35:12.048Z,8.05
2022-12-08T18:37:40.275Z,7.97
2022-12-08T18:40:11.102Z,8.60
2022-12-08T18:42:38.972Z,7.95
2022-12-08T18:45:08.407Z,6.68
2022-12-08T18:47:38.474Z,7.70
2022-12-08T18:50:08.668Z,7.47
2022-12-08T18:52:36.393Z,8.07
2022-12-08T18:55:06.843Z,8.65
2022-12-08T18:57:38.442Z,9.52
2022-12-08T19:00:08.417Z,10.07
2022-12-08T19:02:37.313Z,9.38
2022-12-08T19:05:05.694Z,9.65
2022-12-08T19:07:33.737Z,9.77
2022-12-08T19:10:01.625Z,9.77
2022-12-08T19:12:29.703Z,9.95
2022-12-08T19:14:59.291Z,9.68
2022-12-08T19:17:27.235Z,27.85
2022-12-08T19:19:54.947Z,17.88
2022-12-08T19:22:22.662Z,11.52
2022-12-08T19:24:50.445Z,14.65
2022-12-08T19:27:18.652Z,13.70
2022-12-08T19:29:46.725Z,15.90
2022-12-08T19:32:15.981Z,16.73
2022-12-08T19:34:43.760Z,17.40
2022-12-08T19:37:12.721Z,17.95
2022-12-08T19:39:58.267Z,15.38
2022-12-08T19:42:43.710Z,13.50
2022-12-08T19:45:13.815Z,10.40
2022-12-08T19:47:43.599Z,9.27
2022-12-08T19:50:33.897Z,10.40
2022-12-08T19:53:01.790Z,12.10
2022-12-08T19:55:30.229Z,13.75
2022-12-08T19:57:58.390Z,16.55
2022-12-08T20:00:26.199Z,17.13
2022-12-08T20:02:55.709Z,15.50
2022-12-08T20:05:23.732Z,14.45
2022-12-08T20:07:52.371Z,14.75
2022-12-08T20:10:24.183Z,14.90
2022-12-08T20:12:52.084Z,15.02
2022-12-08T20:15:19.876Z,11.48
2022-12-08T20:17:47.690Z,10.13
2022-12-08T20:20:19.462Z,10.93
2022-12-08T20:22:48.632Z,10.05
2022-12-08T20:25:16.694Z,9.55
2022-12-08T20:27:44.833Z,12.15
2022-12-08T20:30:17.305Z,11.40
2022-12-08T20:32:45.551Z,12.05
2022-12-08T20:35:14.747Z,8.63
2022-12-08T20:37:44.412Z,7.82
2022-12-08T20:40:12.678Z,7.93
2022-12-08T20:42:40.488Z,7.47
2022-12-08T20:45:09.838Z,7.90
2022-12-08T20:47:38.335Z,8.07
2022-12-08T20:50:07.951Z,7.53
2022-12-08T20:52:37.924Z,9.35
2022-12-08T20:55:08.568Z,9.75
2022-12-08T20:57:36.715Z,9.73
2022-12-08T21:00:06.070Z,8.68
2022-12-08T21:02:34.506Z,8.75
2022-12-08T21:05:02.790Z,10.30
2022-12-08T21:07:30.598Z,11.35
2022-12-08T21:09:58.875Z,10.98
2022-12-08T21:12:28.103Z,11.93
2022-12-08T21:14:56.007Z,11.70
2022-12-08T21:17:24.213Z,11.07
2022-12-08T21:19:52.230Z,13.10
2022-12-08T21:22:20.867Z,13.27
2022-12-08T21:24:49.338Z,11.38
2022-12-08T21:27:17.346Z,11.32
2022-12-08T21:29:46.652Z,9.57
2022-12-08T21:32:14.594Z,8.90
2022-12-08T21:34:44.589Z,11.77
2022-12-08T21:37:12.641Z,13.13
2022-12-08T21:39:40.373Z,15.60
2022-12-08T21:42:30.702Z,17.00
2022-12-08T21:45:03.198Z,12.27
2022-12-08T21:47:31.202Z,10.52
2022-12-08T21:49:59.515Z,10.73
2022-12-08T21:52:27.560Z,11.80
2022-12-08T21:54:57.440Z,12.05
2022-12-08T22:01:24.499Z,10.40
2022-12-08T22:03:56.380Z,9.70
2022-12-08T22:06:24.538Z,10.20
2022-12-08T22:08:52.440Z,9.85
2022-12-08T22:11:20.268Z,11.13
2022-12-08T22:13:48.336Z,11.38
2022-12-08T22:16:16.417Z,11.15
2022-12-08T22:18:44.303Z,11.40
2022-12-08T22:21:16.077Z,11.20
2022-12-08T22:23:44.459Z,12.48
2022-12-08T22:26:17.434Z,10.75
2022-12-08T22:31:15.541Z,9.30
2022-12-08T22:33:59.814Z,11.02
2022-12-08T22:36:29.832Z,9.52
2022-12-08T22:38:58.095Z,8.65
2022-12-08T22:41:25.910Z,8.95
2022-12-08T22:43:53.698Z,8.13
2022-12-08T22:46:26.038Z,9.85
2022-12-08T22:48:55.712Z,10.52
2022-12-08T22:51:28.024Z,10.70
2022-12-08T22:54:07.056Z,9.07
2022-12-08T22:56:40.434Z,8.63
2022-12-08T22:59:08.332Z,8.02
2022-12-08T23:01:36.467Z,7.78
2022-12-08T23:04:04.830Z,8.85
2022-12-08T23:06:33.139Z,8.18
2022-12-08T23:09:02.377Z,9.20
2022-12-08T23:11:31.572Z,8.38
2022-12-08T23:14:01.039Z,8.80
2022-12-08T23:16:29.048Z,9.32
2022-12-08T23:18:57.023Z,9.18
2022-12-08T23:21:25.093Z,8.82
2022-12-08T23:23:52.965Z,8.77
2022-12-08T23:26:24.751Z,9.57
2022-12-08T23:28:52.758Z,9.23
2022-12-08T23:31:21.571Z,8.82
2022-12-08T23:33:49.923Z,8.15
2022-12-08T23:36:19.522Z,9.25
2022-12-08T23:38:48.041Z,8.90
2022-12-08T23:41:17.290Z,9.00
2022-12-08T23:43:47.486Z,8.93
2022-12-08T23:46:16.984Z,8.55
2022-12-08T23:48:45.105Z,9.75
2022-12-08T23:51:14.039Z,12.95
2022-12-08T23:53:42.274Z,23.05
2022-12-08T23:56:12.221Z,24.15
2022-12-08T23:58:40.604Z,18.60
